Time;durP1;ratioP1;P1;durP2;ratioP2;P2;SDS_P1;SDS_P2;PMS_P1;PMS_P2;Temp;Humidity;BMP_temperature;BMP_pressure;BME280_temperature;BME280_humidity;BME280_pressure;Samples;Min_cycle;Max_cycle;Signal;HPM_P1;HPM_P2
2023/05/07 00:00:46;;;;;;;5.78;4.28;;;;;;;;;;6208484;28;20041;-78
2023/05/07 00:03:48;;;;;;;4.95;3.83;;;;;;;;;;6202889;28;20038;-78
2023/05/07 00:06:50;;;;;;;4.53;4.00;;;;;;;;;;6210717;28;20044;-78
2023/05/07 00:09:52;;;;;;;4.85;3.92;;;;;;;;;;6207497;28;20038;-78
2023/05/07 00:12:54;;;;;;;4.38;3.95;;;;;;;;;;6205055;28;20046;-78
2023/05/07 00:15:55;;;;;;;5.70;4.10;;;;;;;;;;6202483;28;20065;-78
2023/05/07 00:18:57;;;;;;;4.25;3.85;;;;;;;;;;6198302;28;20447;-78
2023/05/07 00:21:59;;;;;;;4.78;4.10;;;;;;;;;;6200735;28;20041;-78
2023/05/07 00:25:00;;;;;;;4.43;4.00;;;;;;;;;;6202873;28;20053;-78
2023/05/07 00:28:03;;;;;;;5.43;4.05;;;;;;;;;;6201893;28;20048;-78
2023/05/07 00:31:05;;;;;;;4.82;4.18;;;;;;;;;;6199136;28;20128;-78
2023/05/07 00:34:07;;;;;;;5.53;4.03;;;;;;;;;;6203872;28;20069;-77
2023/05/07 00:37:08;;;;;;;5.30;4.25;;;;;;;;;;6203948;28;20129;-78
2023/05/07 00:40:11;;;;;;;4.88;3.97;;;;;;;;;;6205105;28;20042;-78
2023/05/07 00:43:13;;;;;;;6.50;4.38;;;;;;;;;;6204472;28;20057;-77
2023/05/07 00:46:15;;;;;;;5.68;4.32;;;;;;;;;;6197356;28;20497;-78
2023/05/07 00:49:18;;;;;;;5.57;4.05;;;;;;;;;;6211134;28;20069;-78
2023/05/07 00:52:23;;;;;;;5.95;4.47;;;;;;;;;;6191298;28;20642;-78
2023/05/07 00:55:25;;;;;;;5.20;4.57;;;;;;;;;;6207078;28;20049;-77
2023/05/07 00:58:27;;;;;;;6.00;4.40;;;;;;;;;;6199439;28;20127;-77
2023/05/07 01:01:29;;;;;;;8.45;4.70;;;;;;;;;;6213906;28;20038;-78
2023/05/07 01:04:31;;;;;;;6.43;4.47;;;;;;;;;;6195920;28;20341;-78
2023/05/07 01:07:35;;;;;;;5.27;4.23;;;;;;;;;;6197640;28;20054;-77
2023/05/07 01:10:37;;;;;;;4.53;3.72;;;;;;;;;;6196092;28;20042;-78
2023/05/07 01:13:39;;;;;;;6.63;4.60;;;;;;;;;;6201958;28;20104;-78
2023/05/07 01:16:41;;;;;;;6.60;4.40;;;;;;;;;;6212600;28;20142;-77
2023/05/07 01:19:44;;;;;;;6.33;4.20;;;;;;;;;;6203345;28;20484;-78
2023/05/07 01:22:45;;;;;;;5.93;4.55;;;;;;;;;;6225076;28;22127;-77
2023/05/07 01:25:54;;;;;;;9.50;4.72;;;;;;;;;;6203045;28;20497;-77
2023/05/07 01:28:58;;;;;;;5.05;4.20;;;;;;;;;;6208964;28;20499;-78
2023/05/07 01:32:01;;;;;;;6.40;4.30;;;;;;;;;;6184977;28;20042;-79
2023/05/07 01:35:05;;;;;;;4.43;3.97;;;;;;;;;;6207340;28;20042;-77
2023/05/07 01:38:07;;;;;;;5.30;4.07;;;;;;;;;;6210438;28;20127;-77
2023/05/07 01:41:09;;;;;;;5.13;4.00;;;;;;;;;;6214965;28;20163;-78
2023/05/07 01:44:13;;;;;;;4.72;4.07;;;;;;;;;;6204523;28;20105;-77
2023/05/07 01:47:15;;;;;;;4.53;3.55;;;;;;;;;;6211742;28;20042;-78
2023/05/07 01:50:19;;;;;;;4.95;4.35;;;;;;;;;;6207331;28;20078;-77
2023/05/07 01:53:20;;;;;;;4.78;4.05;;;;;;;;;;6207696;28;20045;-76
2023/05/07 01:56:22;;;;;;;4.93;3.90;;;;;;;;;;6207308;28;20042;-77
2023/05/07 01:59:25;;;;;;;6.35;3.78;;;;;;;;;;6207406;28;20090;-77
2023/05/07 02:02:27;;;;;;;4.10;3.67;;;;;;;;;;6242516;28;20054;-77
2023/05/07 02:05:30;;;;;;;6.57;4.90;;;;;;;;;;6225579;28;20093;-78
2023/05/07 02:08:37;;;;;;;6.50;4.93;;;;;;;;;;6234372;28;20041;-77
2023/05/07 02:11:39;;;;;;;7.53;5.05;;;;;;;;;;6230489;28;20041;-78
2023/05/07 02:14:41;;;;;;;8.52;5.60;;;;;;;;;;6243306;28;20088;-78
2023/05/07 02:18:03;;;;;;;7.13;5.25;;;;;;;;;;6231515;28;20110;-78
2023/05/07 02:21:05;;;;;;;6.50;4.95;;;;;;;;;;6242125;28;20042;-77
2023/05/07 02:24:07;;;;;;;7.38;5.10;;;;;;;;;;6214281;28;20052;-78
2023/05/07 02:27:09;;;;;;;6.28;4.72;;;;;;;;;;6224809;28;20038;-78
2023/05/07 02:30:12;;;;;;;8.57;5.43;;;;;;;;;;6204584;28;20045;-78
2023/05/07 02:33:13;;;;;;;8.18;4.68;;;;;;;;;;6211925;28;20062;-78
2023/05/07 02:36:16;;;;;;;4.38;3.63;;;;;;;;;;6207742;28;20080;-78
2023/05/07 02:39:27;;;;;;;4.35;3.40;;;;;;;;;;6216559;28;20129;-78
2023/05/07 02:42:28;;;;;;;4.70;3.70;;;;;;;;;;6202083;28;20092;-78
2023/05/07 02:45:30;;;;;;;4.50;4.00;;;;;;;;;;6206631;28;20053;-78
2023/05/07 02:48:32;;;;;;;4.90;4.40;;;;;;;;;;6186491;28;20512;-78
2023/05/07 02:51:33;;;;;;;5.00;4.18;;;;;;;;;;6217849;28;20172;-78
2023/05/07 02:54:38;;;;;;;5.60;4.32;;;;;;;;;;6188238;28;20047;-78
2023/05/07 02:57:39;;;;;;;5.80;4.60;;;;;;;;;;6208116;28;20053;-79
2023/05/07 03:00:41;;;;;;;7.15;4.70;;;;;;;;;;6214681;28;20052;-78
2023/05/07 03:04:04;;;;;;;6.25;4.95;;;;;;;;;;6193527;28;20039;-77
2023/05/07 03:07:06;;;;;;;6.30;4.57;;;;;;;;;;6191346;28;20047;-78
2023/05/07 03:10:08;;;;;;;6.97;4.85;;;;;;;;;;6181426;28;20046;-77
2023/05/07 03:13:10;;;;;;;8.90;4.80;;;;;;;;;;6202230;28;20049;-78
2023/05/07 03:16:12;;;;;;;5.22;4.25;;;;;;;;;;6191799;28;20292;-78
2023/05/07 03:19:13;;;;;;;5.95;4.53;;;;;;;;;;6213208;28;20049;-78
2023/05/07 03:22:15;;;;;;;4.50;4.03;;;;;;;;;;6190716;28;20045;-78
2023/05/07 03:25:17;;;;;;;4.72;4.18;;;;;;;;;;6207896;28;20040;-78
2023/05/07 03:28:18;;;;;;;6.57;4.05;;;;;;;;;;6205461;28;20042;-78
2023/05/07 03:31:28;;;;;;;5.50;4.15;;;;;;;;;;6192458;28;20046;-78
2023/05/07 03:34:30;;;;;;;7.20;4.13;;;;;;;;;;6205732;28;20075;-78
2023/05/07 03:37:32;;;;;;;5.40;4.03;;;;;;;;;;6207464;28;20156;-79
2023/05/07 03:40:34;;;;;;;5.10;3.88;;;;;;;;;;6205610;28;20145;-77
2023/05/07 03:43:37;;;;;;;;;;;;;;;;;;6212802;28;20045;-78
2023/05/07 03:46:42;;;;;;;5.93;4.03;;;;;;;;;;6210746;28;20384;-78
2023/05/07 03:49:46;;;;;;;4.63;3.97;;;;;;;;;;6210424;28;20044;-77
2023/05/07 03:52:48;;;;;;;5.70;4.25;;;;;;;;;;6200648;28;20060;-78
2023/05/07 03:55:52;;;;;;;7.53;4.65;;;;;;;;;;6205021;28;20060;-78
2023/05/07 03:58:55;;;;;;;6.28;4.22;;;;;;;;;;6196463;28;20069;-78
2023/05/07 04:01:57;;;;;;;5.97;3.92;;;;;;;;;;6195368;28;20429;-78
2023/05/07 04:05:01;;;;;;;4.85;4.18;;;;;;;;;;6215559;28;20049;-78
2023/05/07 04:08:03;;;;;;;5.78;4.10;;;;;;;;;;6191387;28;20050;-78
2023/05/07 04:11:11;;;;;;;6.78;4.43;;;;;;;;;;6197783;28;20415;-78
2023/05/07 04:14:13;;;;;;;5.75;4.53;;;;;;;;;;6202970;28;20050;-77
2023/05/07 04:17:15;;;;;;;7.80;4.85;;;;;;;;;;6200822;28;20614;-77
2023/05/07 04:20:17;;;;;;;7.80;4.37;;;;;;;;;;6206401;28;20037;-78
2023/05/07 04:23:23;;;;;;;7.35;5.20;;;;;;;;;;6203453;28;20061;-79
2023/05/07 04:26:26;;;;;;;6.88;4.72;;;;;;;;;;6190124;28;20050;-78
2023/05/07 04:29:29;;;;;;;6.80;4.97;;;;;;;;;;6184446;28;20108;-78
2023/05/07 04:32:31;;;;;;;9.63;5.47;;;;;;;;;;6213823;28;20043;-77
2023/05/07 04:35:33;;;;;;;7.38;4.65;;;;;;;;;;6203916;28;20046;-77
2023/05/07 04:38:35;;;;;;;6.55;4.63;;;;;;;;;;6198367;28;20038;-79
2023/05/07 04:41:38;;;;;;;;;;;;;;;;;;6206770;28;20134;-78
2023/05/07 04:44:41;;;;;;;7.65;5.38;;;;;;;;;;6205877;28;19984;-78
2023/05/07 04:47:43;;;;;;;9.60;5.68;;;;;;;;;;6202621;28;20125;-78
2023/05/07 04:50:47;;;;;;;6.75;5.70;;;;;;;;;;6203630;28;20049;-79
2023/05/07 04:53:49;;;;;;;8.70;5.72;;;;;;;;;;6208931;28;20054;-79
2023/05/07 04:56:51;;;;;;;7.63;5.75;;;;;;;;;;6202983;28;20504;-79
2023/05/07 04:59:54;;;;;;;7.18;5.43;;;;;;;;;;6221012;28;20134;-77
2023/05/07 05:02:55;;;;;;;6.47;4.97;;;;;;;;;;6191962;28;20050;-78
2023/05/07 05:05:59;;;;;;;8.30;5.10;;;;;;;;;;6201457;28;20045;-78
2023/05/07 05:09:04;;;;;;;6.45;5.32;;;;;;;;;;6189653;28;20042;-79
2023/05/07 05:12:07;;;;;;;9.05;5.80;;;;;;;;;;6203039;28;20050;-78
2023/05/07 05:15:12;;;;;;;6.72;5.30;;;;;;;;;;6181027;28;20515;-78
2023/05/07 05:18:14;;;;;;;5.90;4.80;;;;;;;;;;6200212;28;21064;-78
2023/05/07 05:21:16;;;;;;;5.00;4.50;;;;;;;;;;6192761;28;20039;-79
2023/05/07 05:24:20;;;;;;;6.05;4.90;;;;;;;;;;6201701;28;20042;-79
2023/05/07 05:27:22;;;;;;;5.35;4.78;;;;;;;;;;6168127;28;20046;-79
2023/05/07 05:30:24;;;;;;;7.90;5.15;;;;;;;;;;6199792;28;20054;-78
2023/05/07 05:33:26;;;;;;;6.78;5.28;;;;;;;;;;6204781;28;20530;-78
2023/05/07 05:36:33;;;;;;;7.82;5.78;;;;;;;;;;6211895;28;21395;-79
2023/05/07 05:39:36;;;;;;;8.05;6.32;;;;;;;;;;6207649;28;20038;-78
2023/05/07 05:42:38;;;;;;;8.38;6.43;;;;;;;;;;6193226;28;20161;-78
2023/05/07 05:45:40;;;;;;;9.52;6.28;;;;;;;;;;6210959;28;20046;-78
2023/05/07 05:48:42;;;;;;;10.25;7.38;;;;;;;;;;6207586;28;20041;-79
2023/05/07 05:51:45;;;;;;;11.63;8.75;;;;;;;;;;6198746;28;20094;-78
2023/05/07 05:54:48;;;;;;;15.05;9.30;;;;;;;;;;6209449;28;20061;-78
2023/05/07 05:57:51;;;;;;;19.70;11.00;;;;;;;;;;6210038;28;20101;-78
2023/05/07 06:00:54;;;;;;;14.50;10.63;;;;;;;;;;6213677;28;20046;-78
2023/05/07 06:03:58;;;;;;;16.20;11.02;;;;;;;;;;6201158;28;20053;-78
2023/05/07 06:07:00;;;;;;;16.58;10.63;;;;;;;;;;6200133;28;20046;-79
2023/05/07 06:10:03;;;;;;;18.70;11.32;;;;;;;;;;6209419;28;20048;-78
2023/05/07 06:13:07;;;;;;;15.55;10.65;;;;;;;;;;6211418;28;20049;-78
2023/05/07 06:16:11;;;;;;;16.52;11.05;;;;;;;;;;6204300;28;20038;-78
2023/05/07 06:19:13;;;;;;;16.77;10.60;;;;;;;;;;6185061;28;20050;-79
2023/05/07 06:22:16;;;;;;;16.92;10.63;;;;;;;;;;6191052;28;20042;-78
2023/05/07 06:25:18;;;;;;;17.45;11.35;;;;;;;;;;6192276;28;20056;-78
2023/05/07 06:28:19;;;;;;;16.73;10.63;;;;;;;;;;6215067;28;20072;-78
2023/05/07 06:31:21;;;;;;;15.80;11.20;;;;;;;;;;6203903;28;20042;-78
2023/05/07 06:34:31;;;;;;;16.63;10.80;;;;;;;;;;6206484;28;20053;-78
2023/05/07 06:37:32;;;;;;;18.20;10.95;;;;;;;;;;6207987;28;20512;-78
2023/05/07 06:40:37;;;;;;;16.52;11.18;;;;;;;;;;6187234;28;20050;-79
2023/05/07 06:43:39;;;;;;;16.02;11.00;;;;;;;;;;6209383;28;20420;-79
2023/05/07 06:46:59;;;;;;;13.80;10.38;;;;;;;;;;6205978;28;20575;-79
2023/05/07 06:50:01;;;;;;;16.23;10.00;;;;;;;;;;6205362;28;20042;-78
2023/05/07 06:53:06;;;;;;;15.10;10.23;;;;;;;;;;6200069;28;20046;-79
2023/05/07 06:56:08;;;;;;;15.82;10.35;;;;;;;;;;6212386;28;20069;-79
2023/05/07 06:59:11;;;;;;;13.50;10.10;;;;;;;;;;6196092;28;20045;-79
2023/05/07 07:02:14;;;;;;;12.60;10.05;;;;;;;;;;6199890;28;20053;-78
2023/05/07 07:05:20;;;;;;;13.82;10.35;;;;;;;;;;6191455;28;20393;-78
2023/05/07 07:08:22;;;;;;;14.63;9.77;;;;;;;;;;6208568;28;20134;-79
2023/05/07 07:11:25;;;;;;;14.70;10.30;;;;;;;;;;6199589;28;20058;-79
2023/05/07 07:14:28;;;;;;;14.75;9.95;;;;;;;;;;6204660;28;20046;-78
2023/05/07 07:17:30;;;;;;;13.85;10.52;;;;;;;;;;6203395;28;20042;-77
2023/05/07 07:20:32;;;;;;;14.38;10.00;;;;;;;;;;6203100;28;20053;-78
2023/05/07 07:23:34;;;;;;;15.38;10.80;;;;;;;;;;6207609;28;20046;-78
2023/05/07 07:26:36;;;;;;;15.27;10.13;;;;;;;;;;6207072;28;20381;-78
2023/05/07 07:29:38;;;;;;;13.98;10.05;;;;;;;;;;6201867;28;20050;-78
2023/05/07 07:32:40;;;;;;;13.73;10.10;;;;;;;;;;6204213;28;20108;-78
2023/05/07 07:35:42;;;;;;;13.73;10.10;;;;;;;;;;6209295;28;20139;-79
2023/05/07 07:38:44;;;;;;;14.70;9.88;;;;;;;;;;6178859;28;20046;-77
2023/05/07 07:41:46;;;;;;;15.27;9.82;;;;;;;;;;6199784;28;20531;-78
2023/05/07 07:44:50;;;;;;;;;;;;;;;;;;6203689;28;20413;-78
2023/05/07 07:47:55;;;;;;;13.43;9.88;;;;;;;;;;6203284;28;19924;-78
2023/05/07 07:50:57;;;;;;;11.05;9.23;;;;;;;;;;6213843;28;20086;-78
2023/05/07 07:54:00;;;;;;;11.70;8.80;;;;;;;;;;6215809;28;20141;-78
2023/05/07 07:57:02;;;;;;;;;;;;;;;;;;6206110;28;20507;-77
2023/05/07 08:00:07;;;;;;;13.68;9.52;;;;;;;;;;6209439;28;20015;-78
2023/05/07 08:03:17;;;;;;;13.73;9.50;;;;;;;;;;6198637;28;20531;-78
2023/05/07 08:06:23;;;;;;;14.38;10.38;;;;;;;;;;6202547;28;20046;-79
2023/05/07 08:09:25;;;;;;;14.40;10.82;;;;;;;;;;6206243;28;20046;-80
2023/05/07 08:12:28;;;;;;;14.50;9.77;;;;;;;;;;6202222;28;20057;-78
2023/05/07 08:15:30;;;;;;;15.68;11.23;;;;;;;;;;6200705;28;20512;-79
2023/05/07 08:18:32;;;;;;;14.00;10.60;;;;;;;;;;6189328;28;20101;-79
2023/05/07 08:21:39;;;;;;;12.70;9.60;;;;;;;;;;6199554;28;20037;-79
2023/05/07 08:24:42;;;;;;;14.13;10.88;;;;;;;;;;6218626;28;20049;-78
2023/05/07 08:27:45;;;;;;;14.40;10.68;;;;;;;;;;6198429;28;20045;-79
2023/05/07 08:30:47;;;;;;;15.23;11.10;;;;;;;;;;6200677;28;20037;-77
2023/05/07 08:33:50;;;;;;;14.88;10.50;;;;;;;;;;6207715;28;20052;-77
2023/05/07 08:36:51;;;;;;;11.18;9.15;;;;;;;;;;6181450;28;20192;-78
2023/05/07 08:39:56;;;;;;;12.93;8.90;;;;;;;;;;6200196;28;20045;-78
2023/05/07 08:43:05;;;;;;;14.90;9.60;;;;;;;;;;6205929;28;20057;-78
2023/05/07 08:46:10;;;;;;;12.70;9.85;;;;;;;;;;6204221;28;20041;-78
2023/05/07 08:49:17;;;;;;;12.50;9.25;;;;;;;;;;6203807;28;20108;-78
2023/05/07 08:52:19;;;;;;;12.80;9.45;;;;;;;;;;6223206;28;20120;-78
2023/05/07 08:55:22;;;;;;;;;;;;;;;;;;6188332;28;20050;-78
2023/05/07 08:58:24;;;;;;;12.15;9.40;;;;;;;;;;6190634;28;19997;-79
2023/05/07 09:01:26;;;;;;;12.73;9.40;;;;;;;;;;6199078;28;20097;-78
2023/05/07 09:04:31;;;;;;;14.18;10.07;;;;;;;;;;6208903;28;20054;-79
2023/05/07 09:07:33;;;;;;;12.18;9.80;;;;;;;;;;6195138;28;20388;-78
2023/05/07 09:10:37;;;;;;;13.68;10.30;;;;;;;;;;6204263;28;20701;-78
2023/05/07 09:13:40;;;;;;;13.63;10.38;;;;;;;;;;6202823;28;20135;-77
2023/05/07 09:16:44;;;;;;;14.40;10.60;;;;;;;;;;6200603;28;20117;-77
2023/05/07 09:19:49;;;;;;;12.38;10.43;;;;;;;;;;6205488;28;20050;-78
2023/05/07 09:22:51;;;;;;;13.60;10.57;;;;;;;;;;6202486;28;20535;-77
2023/05/07 09:26:00;;;;;;;13.43;9.70;;;;;;;;;;6201484;28;20060;-77
2023/05/07 09:29:09;;;;;;;13.20;10.27;;;;;;;;;;6168357;28;20047;-78
2023/05/07 09:32:12;;;;;;;13.02;9.95;;;;;;;;;;6210492;28;20132;-78
2023/05/07 09:35:21;;;;;;;11.52;9.45;;;;;;;;;;6202285;28;20125;-78
2023/05/07 09:38:28;;;;;;;12.15;9.98;;;;;;;;;;6217601;28;20053;-77
2023/05/07 09:41:33;;;;;;;12.57;9.75;;;;;;;;;;6194313;28;20113;-76
2023/05/07 09:44:45;;;;;;;13.45;9.80;;;;;;;;;;6203030;28;20057;-76
2023/05/07 09:47:55;;;;;;;13.80;10.70;;;;;;;;;;6195074;28;20896;-77
2023/05/07 09:51:02;;;;;;;13.43;10.45;;;;;;;;;;6204728;28;20139;-77
2023/05/07 09:54:06;;;;;;;12.48;9.95;;;;;;;;;;6195620;28;20045;-77
2023/05/07 09:57:11;;;;;;;10.30;9.15;;;;;;;;;;6197827;28;20050;-76
2023/05/07 10:00:19;;;;;;;13.23;9.30;;;;;;;;;;6201340;28;20097;-77
2023/05/07 10:03:24;;;;;;;11.77;9.38;;;;;;;;;;6198597;28;20504;-78
2023/05/07 10:06:31;;;;;;;14.02;10.38;;;;;;;;;;6197455;28;20061;-77
2023/05/07 10:09:38;;;;;;;13.63;9.30;;;;;;;;;;6201389;28;20045;-79
2023/05/07 10:12:42;;;;;;;10.88;9.20;;;;;;;;;;6197011;28;20655;-79
2023/05/07 10:15:50;;;;;;;14.35;9.98;;;;;;;;;;6177899;28;20052;-79
2023/05/07 10:18:54;;;;;;;12.65;9.00;;;;;;;;;;6194623;28;20433;-78
2023/05/07 10:22:04;;;;;;;12.35;9.95;;;;;;;;;;6216194;28;20054;-77
2023/05/07 10:25:18;;;;;;;11.82;9.48;;;;;;;;;;6203105;28;20073;-78
2023/05/07 10:28:23;;;;;;;10.77;8.93;;;;;;;;;;6204220;28;20440;-78
2023/05/07 10:31:41;;;;;;;9.98;8.32;;;;;;;;;;6201212;28;20046;-78
2023/05/07 10:34:47;;;;;;;14.27;9.07;;;;;;;;;;6216667;28;20050;-79
2023/05/07 10:37:49;;;;;;;10.18;8.10;;;;;;;;;;6218343;28;20397;-79
2023/05/07 10:40:53;;;;;;;9.75;8.13;;;;;;;;;;6205047;28;20053;-78
2023/05/07 10:43:55;;;;;;;10.20;8.27;;;;;;;;;;6202725;28;20046;-78
2023/05/07 10:47:13;;;;;;;11.57;8.70;;;;;;;;;;6212198;28;20302;-77
2023/05/07 10:50:22;;;;;;;9.52;7.38;;;;;;;;;;6193892;28;20053;-78
2023/05/07 10:53:28;;;;;;;10.15;8.00;;;;;;;;;;6201648;28;20050;-73
2023/05/07 10:56:40;;;;;;;7.97;6.47;;;;;;;;;;6188307;28;20058;-78
2023/05/07 10:59:47;;;;;;;10.07;7.80;;;;;;;;;;6198234;28;20054;-78
2023/05/07 11:03:01;;;;;;;9.38;7.25;;;;;;;;;;6200759;28;20053;-78
2023/05/07 11:06:12;;;;;;;8.85;7.32;;;;;;;;;;6191238;28;20108;-78
2023/05/07 11:09:52;;;;;;;8.95;7.13;;;;;;;;;;6193200;28;20038;-76
2023/05/07 11:13:00;;;;;;;;;;;;;;;;;;6193885;28;20524;-76
2023/05/07 11:16:23;;;;;;;11.23;6.80;;;;;;;;;;6190881;28;19987;-77
2023/05/07 11:19:50;;;;;;;8.77;6.90;;;;;;;;;;6193915;28;20046;-77
2023/05/07 11:22:57;;;;;;;8.88;7.22;;;;;;;;;;6180873;28;20045;-78
2023/05/07 11:26:10;;;;;;;8.18;6.85;;;;;;;;;;6190576;28;20050;-77
2023/05/07 11:29:18;;;;;;;7.57;6.57;;;;;;;;;;6195355;28;20043;-77
2023/05/07 11:32:30;;;;;;;7.70;6.13;;;;;;;;;;6198366;28;20145;-77
2023/05/07 11:35:33;;;;;;;8.20;6.78;;;;;;;;;;6177174;28;20042;-77
2023/05/07 11:38:39;;;;;;;8.32;7.18;;;;;;;;;;6182287;28;20042;-78
2023/05/07 11:41:42;;;;;;;6.27;5.30;;;;;;;;;;6197120;28;20166;-78
2023/05/07 11:44:45;;;;;;;7.20;6.00;;;;;;;;;;6200817;28;20449;-77
2023/05/07 11:47:48;;;;;;;7.45;6.38;;;;;;;;;;6198488;28;20081;-78
2023/05/07 11:51:00;;;;;;;7.80;6.10;;;;;;;;;;6196053;28;20122;-76
2023/05/07 11:54:04;;;;;;;8.30;6.23;;;;;;;;;;6199957;28;20911;-77
2023/05/07 11:57:07;;;;;;;7.85;7.03;;;;;;;;;;6198165;28;20038;-77
2023/05/07 12:00:09;;;;;;;9.60;6.25;;;;;;;;;;6197893;28;20053;-77
2023/05/07 12:03:13;;;;;;;7.05;6.30;;;;;;;;;;6199298;28;20500;-77
2023/05/07 12:06:16;;;;;;;8.27;6.10;;;;;;;;;;6199980;28;20983;-77
2023/05/07 12:09:18;;;;;;;7.75;5.97;;;;;;;;;;6195084;28;20077;-77
2023/05/07 12:12:20;;;;;;;7.00;5.70;;;;;;;;;;6199525;28;20420;-77
2023/05/07 12:15:25;;;;;;;6.03;5.43;;;;;;;;;;6197387;28;20046;-77
2023/05/07 12:18:27;;;;;;;5.55;4.80;;;;;;;;;;6186767;28;20761;-77
2023/05/07 12:21:29;;;;;;;5.93;5.20;;;;;;;;;;6196068;28;20100;-77
2023/05/07 12:24:44;;;;;;;5.43;4.65;;;;;;;;;;6189132;28;20629;-77
2023/05/07 12:27:51;;;;;;;5.07;4.20;;;;;;;;;;6193293;28;20504;-77
2023/05/07 12:30:53;;;;;;;6.13;4.90;;;;;;;;;;6194806;28;20367;-76
2023/05/07 12:33:55;;;;;;;6.05;4.82;;;;;;;;;;6196007;28;20072;-76
2023/05/07 12:36:57;;;;;;;5.00;4.50;;;;;;;;;;6185221;28;20038;-76
2023/05/07 12:40:09;;;;;;;6.03;4.33;;;;;;;;;;6196128;28;20042;-77
2023/05/07 12:43:20;;;;;;;6.80;5.18;;;;;;;;;;6177199;28;20480;-77
2023/05/07 12:46:23;;;;;;;6.25;4.90;;;;;;;;;;6216450;28;20038;-76
2023/05/07 12:49:25;;;;;;;5.93;4.50;;;;;;;;;;6196376;28;20050;-77
2023/05/07 12:52:27;;;;;;;5.15;4.50;;;;;;;;;;6195522;28;20661;-77
2023/05/07 12:55:29;;;;;;;;;;;;;;;;;;6208682;28;20127;-79
2023/05/07 12:58:36;;;;;;;6.07;4.20;;;;;;;;;;6196947;28;19933;-77
2023/05/07 13:01:37;;;;;;;4.60;4.05;;;;;;;;;;6197720;28;20085;-77
2023/05/07 13:04:39;;;;;;;4.90;4.30;;;;;;;;;;6193634;28;20424;-77
2023/05/07 13:07:52;;;;;;;5.47;4.63;;;;;;;;;;6195228;28;20077;-77
2023/05/07 13:10:54;;;;;;;5.32;4.65;;;;;;;;;;6191783;28;20054;-77
2023/05/07 13:13:56;;;;;;;5.97;4.05;;;;;;;;;;6194307;28;20061;-78
2023/05/07 13:16:57;;;;;;;5.40;4.53;;;;;;;;;;6192360;28;20184;-77
2023/05/07 13:19:59;;;;;;;4.82;4.30;;;;;;;;;;6191107;28;20538;-78
2023/05/07 13:23:01;;;;;;;6.43;4.63;;;;;;;;;;6194256;28;20547;-78
2023/05/07 13:26:03;;;;;;;5.03;4.40;;;;;;;;;;6190126;28;20050;-77
2023/05/07 13:29:29;;;;;;;4.30;3.90;;;;;;;;;;6195255;28;20050;-78
2023/05/07 13:32:31;;;;;;;6.05;4.40;;;;;;;;;;6188788;28;20756;-76
2023/05/07 13:35:33;;;;;;;6.97;4.57;;;;;;;;;;6191693;28;20058;-75
2023/05/07 13:38:37;;;;;;;5.68;4.70;;;;;;;;;;6191837;28;20043;-76
2023/05/07 13:41:39;;;;;;;5.60;4.35;;;;;;;;;;6188787;28;20046;-75
2023/05/07 13:44:41;;;;;;;5.22;4.50;;;;;;;;;;6192729;28;20057;-76
2023/05/07 13:47:43;;;;;;;5.30;4.80;;;;;;;;;;6214385;28;20050;-76
2023/05/07 13:50:44;;;;;;;6.63;4.47;;;;;;;;;;6195887;28;20042;-76
2023/05/07 13:53:46;;;;;;;6.87;4.70;;;;;;;;;;6205212;28;20030;-76
2023/05/07 13:56:48;;;;;;;5.63;5.07;;;;;;;;;;6202866;28;20043;-76
2023/05/07 13:59:51;;;;;;;5.57;4.63;;;;;;;;;;6203263;28;20045;-77
2023/05/07 14:02:53;;;;;;;6.67;4.83;;;;;;;;;;6194417;28;20046;-76
2023/05/07 14:05:57;;;;;;;5.93;4.75;;;;;;;;;;6200030;28;20060;-77
2023/05/07 14:08:59;;;;;;;5.53;4.60;;;;;;;;;;6203047;28;20045;-77
2023/05/07 14:12:01;;;;;;;;;;;;;;;;;;6200901;28;20061;-77
2023/05/07 14:15:03;;;;;;;5.53;4.72;;;;;;;;;;6195474;28;20693;-75
2023/05/07 14:18:05;;;;;;;6.15;4.40;;;;;;;;;;6184610;28;20647;-74
2023/05/07 14:21:07;;;;;;;5.10;4.60;;;;;;;;;;6198716;28;20061;-76
2023/05/07 14:24:09;;;;;;;10.70;7.63;;;;;;;;;;6177273;28;20050;-74
2023/05/07 14:27:11;;;;;;;7.45;4.75;;;;;;;;;;6201551;28;20053;-75
2023/05/07 14:30:13;;;;;;;8.02;4.75;;;;;;;;;;6201090;28;20049;-76
2023/05/07 14:33:14;;;;;;;6.35;4.90;;;;;;;;;;6197034;28;20062;-75
2023/05/07 14:36:17;;;;;;;5.30;4.80;;;;;;;;;;6198398;28;20042;-75
2023/05/07 14:39:18;;;;;;;5.15;4.28;;;;;;;;;;6200124;28;20072;-73
2023/05/07 14:42:20;;;;;;;6.00;3.85;;;;;;;;;;6197772;28;20073;-73
2023/05/07 14:45:22;;;;;;;4.70;4.23;;;;;;;;;;6199377;28;20144;-76
2023/05/07 14:48:23;;;;;;;5.13;4.63;;;;;;;;;;6201135;28;20482;-75
2023/05/07 14:51:27;;;;;;;7.15;4.63;;;;;;;;;;6200346;28;20176;-75
2023/05/07 14:54:29;;;;;;;5.63;5.05;;;;;;;;;;6197553;28;20046;-75
2023/05/07 14:57:34;;;;;;;6.47;4.40;;;;;;;;;;6197988;28;20046;-74
2023/05/07 15:00:36;;;;;;;6.05;4.90;;;;;;;;;;6193727;28;20049;-75
2023/05/07 15:03:38;;;;;;;5.90;4.60;;;;;;;;;;6196978;28;20056;-74
2023/05/07 15:06:39;;;;;;;4.95;4.45;;;;;;;;;;6202089;28;20044;-74
2023/05/07 15:09:42;;;;;;;5.15;4.50;;;;;;;;;;6199388;28;20066;-74
2023/05/07 15:12:44;;;;;;;;;;;;;;;;;;6196537;28;20572;-75
2023/05/07 15:15:45;;;;;;;5.93;4.72;;;;;;;;;;6194887;28;19932;-72
2023/05/07 15:18:49;;;;;;;5.30;4.40;;;;;;;;;;6196572;28;20038;-75
2023/05/07 15:21:50;;;;;;;4.72;4.20;;;;;;;;;;6174946;28;20042;-75
2023/05/07 15:24:52;;;;;;;4.63;4.22;;;;;;;;;;6201800;28;20045;-74
2023/05/07 15:27:53;;;;;;;5.60;4.45;;;;;;;;;;6199730;28;20157;-75
2023/05/07 15:30:55;;;;;;;5.35;4.32;;;;;;;;;;6180144;28;20042;-75
2023/05/07 15:33:57;;;;;;;4.80;4.30;;;;;;;;;;6190453;28;20049;-75
2023/05/07 15:36:58;;;;;;;5.88;4.57;;;;;;;;;;6191274;28;20681;-74
2023/05/07 15:40:02;;;;;;;5.18;4.35;;;;;;;;;;6192960;28;20042;-73
2023/05/07 15:43:03;;;;;;;5.10;4.32;;;;;;;;;;6198834;28;20050;-73
2023/05/07 15:46:05;;;;;;;4.50;4.00;;;;;;;;;;6196168;28;20136;-72
2023/05/07 15:49:07;;;;;;;4.93;4.30;;;;;;;;;;6204183;28;20747;-75
2023/05/07 15:52:13;;;;;;;5.60;4.57;;;;;;;;;;6192652;28;20678;-73
2023/05/07 15:55:15;;;;;;;5.20;4.47;;;;;;;;;;6195224;28;20053;-75
2023/05/07 15:58:19;;;;;;;5.38;4.80;;;;;;;;;;6174081;28;20113;-74
2023/05/07 16:01:20;;;;;;;4.63;4.18;;;;;;;;;;6196241;28;20054;-75
2023/05/07 16:04:26;;;;;;;4.95;4.45;;;;;;;;;;6203787;28;20103;-75
2023/05/07 16:07:28;;;;;;;4.65;4.25;;;;;;;;;;6176409;28;20054;-73
2023/05/07 16:10:30;;;;;;;5.40;4.90;;;;;;;;;;6181013;28;20736;-74
2023/05/07 16:13:33;;;;;;;5.77;4.50;;;;;;;;;;6200189;28;20053;-75
2023/05/07 16:16:36;;;;;;;5.20;4.70;;;;;;;;;;6201207;28;20061;-74
2023/05/07 16:19:38;;;;;;;6.07;4.75;;;;;;;;;;6207539;28;20781;-74
2023/05/07 16:22:40;;;;;;;5.72;4.80;;;;;;;;;;6194136;28;20050;-72
2023/05/07 16:25:41;;;;;;;6.00;5.40;;;;;;;;;;6190292;28;20104;-73
2023/05/07 16:28:44;;;;;;;6.13;4.95;;;;;;;;;;6202038;28;20052;-74
2023/05/07 16:31:45;;;;;;;5.25;4.68;;;;;;;;;;6193389;28;20452;-76
2023/05/07 16:34:47;;;;;;;5.20;4.53;;;;;;;;;;6198391;28;20058;-76
2023/05/07 16:37:49;;;;;;;7.32;5.13;;;;;;;;;;6195890;28;20146;-77
2023/05/07 16:40:51;;;;;;;6.63;4.90;;;;;;;;;;6199347;28;20049;-77
2023/05/07 16:43:53;;;;;;;6.90;5.00;;;;;;;;;;6194189;28;20157;-76
2023/05/07 16:46:54;;;;;;;6.55;5.00;;;;;;;;;;6193913;28;20422;-77
2023/05/07 16:49:57;;;;;;;6.97;5.82;;;;;;;;;;6190855;28;20401;-77
2023/05/07 16:52:58;;;;;;;6.07;5.47;;;;;;;;;;6193185;28;20065;-75
2023/05/07 16:56:06;;;;;;;6.55;5.40;;;;;;;;;;6194411;28;20674;-76
2023/05/07 16:59:08;;;;;;;6.95;5.40;;;;;;;;;;6200844;28;20045;-76
2023/05/07 17:02:10;;;;;;;7.72;5.43;;;;;;;;;;6201367;28;20671;-76
2023/05/07 17:05:12;;;;;;;7.33;5.40;;;;;;;;;;6203544;28;20057;-77
2023/05/07 17:08:14;;;;;;;6.57;5.28;;;;;;;;;;6199076;28;20046;-76
2023/05/07 17:11:16;;;;;;;9.35;5.93;;;;;;;;;;6198419;28;20052;-77
2023/05/07 17:14:17;;;;;;;7.63;6.13;;;;;;;;;;6198334;28;20042;-76
2023/05/07 17:17:19;;;;;;;7.45;5.80;;;;;;;;;;6196369;28;20199;-78
2023/05/07 17:20:20;;;;;;;8.35;6.03;;;;;;;;;;6199453;28;20038;-78
2023/05/07 17:23:22;;;;;;;6.88;6.05;;;;;;;;;;6206234;28;20042;-76
2023/05/07 17:26:24;;;;;;;6.82;5.60;;;;;;;;;;6205122;28;20050;-77
2023/05/07 17:29:29;;;;;;;;;;;;;;;;;;6205029;28;20058;-78
2023/05/07 17:32:33;;;;;;;6.75;5.40;;;;;;;;;;6195422;28;19948;-77
2023/05/07 17:35:40;;;;;;;5.95;5.22;;;;;;;;;;6201840;28;20525;-78
2023/05/07 17:38:45;;;;;;;6.60;5.30;;;;;;;;;;6209206;28;20357;-77
2023/05/07 17:41:46;;;;;;;6.78;5.38;;;;;;;;;;6204820;28;20723;-76
2023/05/07 17:44:48;;;;;;;6.90;5.53;;;;;;;;;;6185899;28;20099;-77
2023/05/07 17:47:50;;;;;;;8.93;5.30;;;;;;;;;;6193690;28;20105;-79
2023/05/07 17:50:51;;;;;;;7.88;5.97;;;;;;;;;;6199934;28;20054;-80
2023/05/07 17:53:53;;;;;;;7.10;5.72;;;;;;;;;;6203509;28;20552;-79
2023/05/07 17:56:54;;;;;;;6.15;5.50;;;;;;;;;;6203840;28;20056;-79
2023/05/07 17:59:59;;;;;;;6.13;5.03;;;;;;;;;;6206640;28;20049;-80
2023/05/07 18:03:01;;;;;;;6.28;5.45;;;;;;;;;;6202219;28;20057;-78
2023/05/07 18:06:03;;;;;;;8.32;5.47;;;;;;;;;;6204993;28;20553;-80
2023/05/07 18:09:04;;;;;;;7.20;5.22;;;;;;;;;;6207590;28;20396;-79
2023/05/07 18:12:06;;;;;;;6.45;5.18;;;;;;;;;;6205889;28;20184;-78
2023/05/07 18:15:09;;;;;;;7.20;5.35;;;;;;;;;;6205239;28;20389;-77
2023/05/07 18:18:11;;;;;;;7.20;5.38;;;;;;;;;;6184281;28;20141;-77